Peterborough Municipal Airport

Airport
ICAO code: 
CYPQ
IATA Code: 
YPQ
Summary
ICAO Region: 
NAM
Territory: 
Location: 
Peterborough, Ontario,
Serving: 
Peterborough
Elevation: 
628 ft
Coordinates: 
Aerial View: 
44° 13' 48" N, 78° 21' 48.006" W
Metar
Observation
CYPQ 271100Z AUTO 29008KT 9SM CLR M08/M09 A2994 RMK SLP151
Station
Peterborough Airport
Date/Time
2021-11-27 11:00:00
Wind direction
290°
Wind speed
08 kts
Lowest cloud amount
n/a
Temperature
-8°C
Dew point
-9°C
Humidity
92%
Weather condition
n/a

Description

International airport serving Peterborough, located 3 nm south-southwest of the city of Peterborough, Ontario, Canada.

Climatology

Humid continental climate (Köppen climate classification Dfa) - characterized by four seasons: cold, windy, snowy winters, mild springs, hot, humid summers, and crisp and relatively short autumns. Precipitation reaches its lowest in January and February and peaks in summer and latter half of spring.

Runways

Designator Length Width Surface Rops
14/32 543 30 GRS No/No
9/27 2134 30 ASP Yes/Yes
Airport map: 
Aerial View: 

SKYbrary Partners:

Safety knowledge contributed by: